sensor_id;sensor_type;location;lat;lon;timestamp;P1;durP1;ratioP1;P2;durP2;ratioP2
7971;SDS011;4031;49.758;6.120;2023-07-29T00:00:39;1.57;;;1.40;;
7971;SDS011;4031;49.758;6.120;2023-07-29T00:03:05;1.70;;;1.60;;
7971;SDS011;4031;49.758;6.120;2023-07-29T00:05:31;1.47;;;1.37;;
7971;SDS011;4031;49.758;6.120;2023-07-29T00:07:57;5.43;;;1.63;;
7971;SDS011;4031;49.758;6.120;2023-07-29T00:10:22;2.40;;;1.47;;
7971;SDS011;4031;49.758;6.120;2023-07-29T00:12:48;2.63;;;1.53;;
7971;SDS011;4031;49.758;6.120;2023-07-29T00:15:14;1.87;;;1.67;;
7971;SDS011;4031;49.758;6.120;2023-07-29T00:17:39;1.50;;;1.40;;
7971;SDS011;4031;49.758;6.120;2023-07-29T00:20:06;3.00;;;1.60;;
7971;SDS011;4031;49.758;6.120;2023-07-29T00:22:32;2.20;;;1.20;;
7971;SDS011;4031;49.758;6.120;2023-07-29T00:24:58;1.50;;;1.30;;
7971;SDS011;4031;49.758;6.120;2023-07-29T00:27:24;2.97;;;1.67;;
7971;SDS011;4031;49.758;6.120;2023-07-29T00:29:50;1.60;;;1.50;;
7971;SDS011;4031;49.758;6.120;2023-07-29T00:32:16;1.53;;;1.43;;
7971;SDS011;4031;49.758;6.120;2023-07-29T00:34:42;1.40;;;1.20;;
7971;SDS011;4031;49.758;6.120;2023-07-29T00:37:07;2.57;;;1.70;;
7971;SDS011;4031;49.758;6.120;2023-07-29T00:39:33;2.90;;;1.60;;
7971;SDS011;4031;49.758;6.120;2023-07-29T00:41:59;1.53;;;1.43;;
7971;SDS011;4031;49.758;6.120;2023-07-29T00:44:25;1.63;;;1.53;;
7971;SDS011;4031;49.758;6.120;2023-07-29T00:46:54;1.73;;;1.63;;
7971;SDS011;4031;49.758;6.120;2023-07-29T00:49:20;1.60;;;1.27;;
7971;SDS011;4031;49.758;6.120;2023-07-29T00:51:46;1.50;;;1.40;;
7971;SDS011;4031;49.758;6.120;2023-07-29T00:54:12;1.70;;;1.47;;
7971;SDS011;4031;49.758;6.120;2023-07-29T00:56:39;2.90;;;1.73;;
7971;SDS011;4031;49.758;6.120;2023-07-29T00:59:05;1.63;;;1.53;;
7971;SDS011;4031;49.758;6.120;2023-07-29T01:01:32;4.20;;;1.40;;
7971;SDS011;4031;49.758;6.120;2023-07-29T01:03:58;2.27;;;1.53;;
7971;SDS011;4031;49.758;6.120;2023-07-29T01:09:25;2.20;;;1.53;;
7971;SDS011;4031;49.758;6.120;2023-07-29T01:15:29;2.13;;;2.03;;
7971;SDS011;4031;49.758;6.120;2023-07-29T01:18:45;1.60;;;1.17;;
7971;SDS011;4031;49.758;6.120;2023-07-29T01:21:13;1.40;;;1.23;;
7971;SDS011;4031;49.758;6.120;2023-07-29T01:23:40;1.80;;;1.27;;
7971;SDS011;4031;49.758;6.120;2023-07-29T01:26:06;1.47;;;1.33;;
7971;SDS011;4031;49.758;6.120;2023-07-29T01:28:32;2.83;;;1.77;;
7971;SDS011;4031;49.758;6.120;2023-07-29T01:31:10;3.77;;;2.07;;
7971;SDS011;4031;49.758;6.120;2023-07-29T01:36:45;5.37;;;1.60;;
7971;SDS011;4031;49.758;6.120;2023-07-29T01:39:15;1.50;;;1.40;;
7971;SDS011;4031;49.758;6.120;2023-07-29T01:41:43;1.53;;;1.43;;
7971;SDS011;4031;49.758;6.120;2023-07-29T01:44:10;1.90;;;1.60;;
7971;SDS011;4031;49.758;6.120;2023-07-29T01:46:36;2.37;;;1.57;;
7971;SDS011;4031;49.758;6.120;2023-07-29T01:49:02;2.50;;;1.90;;
7971;SDS011;4031;49.758;6.120;2023-07-29T01:51:28;1.70;;;1.60;;
7971;SDS011;4031;49.758;6.120;2023-07-29T01:53:54;2.70;;;2.10;;
7971;SDS011;4031;49.758;6.120;2023-07-29T01:56:20;2.33;;;2.10;;
7971;SDS011;4031;49.758;6.120;2023-07-29T01:58:46;1.53;;;1.40;;
7971;SDS011;4031;49.758;6.120;2023-07-29T02:01:12;1.73;;;1.57;;
7971;SDS011;4031;49.758;6.120;2023-07-29T02:03:38;2.13;;;1.83;;
7971;SDS011;4031;49.758;6.120;2023-07-29T02:06:03;3.00;;;2.03;;
7971;SDS011;4031;49.758;6.120;2023-07-29T02:08:29;1.87;;;1.77;;
7971;SDS011;4031;49.758;6.120;2023-07-29T02:10:55;2.00;;;1.60;;
7971;SDS011;4031;49.758;6.120;2023-07-29T02:13:21;3.20;;;1.90;;
7971;SDS011;4031;49.758;6.120;2023-07-29T02:15:46;1.87;;;1.77;;
7971;SDS011;4031;49.758;6.120;2023-07-29T02:18:12;2.07;;;1.70;;
7971;SDS011;4031;49.758;6.120;2023-07-29T02:20:38;2.53;;;1.93;;
7971;SDS011;4031;49.758;6.120;2023-07-29T02:23:03;1.83;;;1.73;;
7971;SDS011;4031;49.758;6.120;2023-07-29T02:25:29;1.60;;;1.50;;
7971;SDS011;4031;49.758;6.120;2023-07-29T02:27:55;2.10;;;1.90;;
7971;SDS011;4031;49.758;6.120;2023-07-29T02:30:21;2.17;;;1.90;;
7971;SDS011;4031;49.758;6.120;2023-07-29T02:32:46;1.57;;;1.47;;
7971;SDS011;4031;49.758;6.120;2023-07-29T02:35:12;2.00;;;1.90;;
7971;SDS011;4031;49.758;6.120;2023-07-29T02:37:38;1.80;;;1.70;;
7971;SDS011;4031;49.758;6.120;2023-07-29T02:40:04;2.20;;;2.00;;
7971;SDS011;4031;49.758;6.120;2023-07-29T02:42:31;1.60;;;1.50;;
7971;SDS011;4031;49.758;6.120;2023-07-29T02:44:56;4.53;;;2.07;;
7971;SDS011;4031;49.758;6.120;2023-07-29T02:47:22;1.90;;;1.70;;
7971;SDS011;4031;49.758;6.120;2023-07-29T02:49:48;1.70;;;1.60;;
7971;SDS011;4031;49.758;6.120;2023-07-29T02:52:13;2.30;;;2.10;;
7971;SDS011;4031;49.758;6.120;2023-07-29T02:54:39;1.93;;;1.73;;
7971;SDS011;4031;49.758;6.120;2023-07-29T02:57:05;2.67;;;1.90;;
7971;SDS011;4031;49.758;6.120;2023-07-29T02:59:30;1.80;;;1.70;;
7971;SDS011;4031;49.758;6.120;2023-07-29T03:01:56;2.20;;;2.00;;
7971;SDS011;4031;49.758;6.120;2023-07-29T03:04:22;3.50;;;2.37;;
7971;SDS011;4031;49.758;6.120;2023-07-29T03:06:48;2.33;;;1.80;;
7971;SDS011;4031;49.758;6.120;2023-07-29T03:09:14;2.43;;;2.27;;
7971;SDS011;4031;49.758;6.120;2023-07-29T03:11:40;1.97;;;1.87;;
7971;SDS011;4031;49.758;6.120;2023-07-29T03:14:05;2.33;;;2.07;;
7971;SDS011;4031;49.758;6.120;2023-07-29T03:16:31;2.77;;;2.43;;
7971;SDS011;4031;49.758;6.120;2023-07-29T03:18:57;2.57;;;2.10;;
7971;SDS011;4031;49.758;6.120;2023-07-29T03:21:24;4.17;;;2.50;;
7971;SDS011;4031;49.758;6.120;2023-07-29T03:23:49;3.83;;;2.30;;
7971;SDS011;4031;49.758;6.120;2023-07-29T03:26:15;3.23;;;2.30;;
7971;SDS011;4031;49.758;6.120;2023-07-29T03:28:42;3.50;;;2.70;;
7971;SDS011;4031;49.758;6.120;2023-07-29T03:31:08;4.87;;;3.07;;
7971;SDS011;4031;49.758;6.120;2023-07-29T03:33:34;3.40;;;2.20;;
7971;SDS011;4031;49.758;6.120;2023-07-29T03:36:00;2.83;;;2.60;;
7971;SDS011;4031;49.758;6.120;2023-07-29T03:38:26;4.53;;;3.23;;
7971;SDS011;4031;49.758;6.120;2023-07-29T03:40:52;3.00;;;2.50;;
7971;SDS011;4031;49.758;6.120;2023-07-29T03:43:21;3.53;;;2.50;;
7971;SDS011;4031;49.758;6.120;2023-07-29T03:45:46;2.60;;;2.30;;
7971;SDS011;4031;49.758;6.120;2023-07-29T03:48:12;3.10;;;2.90;;
7971;SDS011;4031;49.758;6.120;2023-07-29T03:50:38;3.03;;;2.60;;
7971;SDS011;4031;49.758;6.120;2023-07-29T03:53:04;3.77;;;3.00;;
7971;SDS011;4031;49.758;6.120;2023-07-29T03:55:30;2.97;;;2.40;;
7971;SDS011;4031;49.758;6.120;2023-07-29T03:57:57;2.77;;;2.30;;
7971;SDS011;4031;49.758;6.120;2023-07-29T04:00:24;2.70;;;2.50;;
7971;SDS011;4031;49.758;6.120;2023-07-29T04:02:50;3.83;;;2.90;;
7971;SDS011;4031;49.758;6.120;2023-07-29T04:05:16;3.60;;;3.10;;
7971;SDS011;4031;49.758;6.120;2023-07-29T04:07:42;3.23;;;2.83;;
7971;SDS011;4031;49.758;6.120;2023-07-29T04:10:08;2.40;;;2.10;;
7971;SDS011;4031;49.758;6.120;2023-07-29T04:12:34;2.50;;;2.30;;
7971;SDS011;4031;49.758;6.120;2023-07-29T04:14:59;2.77;;;2.33;;
7971;SDS011;4031;49.758;6.120;2023-07-29T04:17:25;2.10;;;2.00;;
7971;SDS011;4031;49.758;6.120;2023-07-29T04:19:51;3.13;;;2.67;;
7971;SDS011;4031;49.758;6.120;2023-07-29T04:22:17;5.10;;;2.83;;
7971;SDS011;4031;49.758;6.120;2023-07-29T04:24:42;3.60;;;2.37;;
7971;SDS011;4031;49.758;6.120;2023-07-29T04:27:08;2.40;;;2.20;;
7971;SDS011;4031;49.758;6.120;2023-07-29T04:29:36;2.27;;;2.07;;
7971;SDS011;4031;49.758;6.120;2023-07-29T04:32:02;2.73;;;2.23;;
7971;SDS011;4031;49.758;6.120;2023-07-29T04:34:28;2.33;;;1.90;;
7971;SDS011;4031;49.758;6.120;2023-07-29T04:36:54;2.40;;;2.20;;
7971;SDS011;4031;49.758;6.120;2023-07-29T04:39:20;2.70;;;2.50;;
7971;SDS011;4031;49.758;6.120;2023-07-29T04:41:45;4.77;;;2.60;;
7971;SDS011;4031;49.758;6.120;2023-07-29T04:44:11;3.43;;;2.40;;
7971;SDS011;4031;49.758;6.120;2023-07-29T04:46:37;3.80;;;2.57;;
7971;SDS011;4031;49.758;6.120;2023-07-29T04:49:03;3.20;;;2.90;;
7971;SDS011;4031;49.758;6.120;2023-07-29T04:51:29;3.70;;;2.30;;
7971;SDS011;4031;49.758;6.120;2023-07-29T04:53:56;2.10;;;1.90;;
7971;SDS011;4031;49.758;6.120;2023-07-29T04:56:23;2.47;;;2.27;;
7971;SDS011;4031;49.758;6.120;2023-07-29T04:58:49;3.10;;;2.23;;
7971;SDS011;4031;49.758;6.120;2023-07-29T05:01:14;4.43;;;2.50;;
7971;SDS011;4031;49.758;6.120;2023-07-29T05:03:40;2.27;;;2.03;;
7971;SDS011;4031;49.758;6.120;2023-07-29T05:06:06;2.47;;;2.27;;
7971;SDS011;4031;49.758;6.120;2023-07-29T05:08:31;2.43;;;2.00;;
7971;SDS011;4031;49.758;6.120;2023-07-29T05:10:57;2.77;;;1.67;;
7971;SDS011;4031;49.758;6.120;2023-07-29T05:13:23;2.67;;;2.47;;
7971;SDS011;4031;49.758;6.120;2023-07-29T05:15:49;2.53;;;1.90;;
7971;SDS011;4031;49.758;6.120;2023-07-29T05:18:15;2.40;;;1.77;;
7971;SDS011;4031;49.758;6.120;2023-07-29T05:20:41;2.50;;;2.30;;
7971;SDS011;4031;49.758;6.120;2023-07-29T05:23:07;2.13;;;1.93;;
7971;SDS011;4031;49.758;6.120;2023-07-29T05:25:33;2.83;;;1.90;;
7971;SDS011;4031;49.758;6.120;2023-07-29T05:28:01;3.13;;;2.60;;
7971;SDS011;4031;49.758;6.120;2023-07-29T05:30:28;2.13;;;1.83;;
7971;SDS011;4031;49.758;6.120;2023-07-29T05:32:59;2.33;;;2.13;;
7971;SDS011;4031;49.758;6.120;2023-07-29T05:35:25;1.97;;;1.63;;
7971;SDS011;4031;49.758;6.120;2023-07-29T05:37:51;2.73;;;2.17;;
7971;SDS011;4031;49.758;6.120;2023-07-29T05:40:17;1.87;;;1.73;;
7971;SDS011;4031;49.758;6.120;2023-07-29T05:42:43;1.80;;;1.50;;
7971;SDS011;4031;49.758;6.120;2023-07-29T05:45:10;5.13;;;1.77;;
7971;SDS011;4031;49.758;6.120;2023-07-29T05:47:36;2.40;;;2.07;;
7971;SDS011;4031;49.758;6.120;2023-07-29T05:50:03;2.63;;;1.90;;
7971;SDS011;4031;49.758;6.120;2023-07-29T05:52:32;1.83;;;1.73;;
7971;SDS011;4031;49.758;6.120;2023-07-29T05:54:58;2.30;;;2.10;;
7971;SDS011;4031;49.758;6.120;2023-07-29T05:57:24;2.70;;;2.10;;
7971;SDS011;4031;49.758;6.120;2023-07-29T05:59:50;2.13;;;1.90;;
7971;SDS011;4031;49.758;6.120;2023-07-29T06:02:15;1.70;;;1.60;;
7971;SDS011;4031;49.758;6.120;2023-07-29T06:04:41;2.80;;;1.83;;
7971;SDS011;4031;49.758;6.120;2023-07-29T06:07:07;2.37;;;1.83;;
7971;SDS011;4031;49.758;6.120;2023-07-29T06:09:33;2.10;;;1.80;;
7971;SDS011;4031;49.758;6.120;2023-07-29T06:11:58;1.77;;;1.67;;
7971;SDS011;4031;49.758;6.120;2023-07-29T06:14:24;2.03;;;1.93;;
7971;SDS011;4031;49.758;6.120;2023-07-29T06:16:51;2.27;;;1.97;;
7971;SDS011;4031;49.758;6.120;2023-07-29T06:19:17;1.57;;;1.47;;
7971;SDS011;4031;49.758;6.120;2023-07-29T06:21:46;2.03;;;1.73;;
7971;SDS011;4031;49.758;6.120;2023-07-29T06:24:11;2.33;;;1.90;;
7971;SDS011;4031;49.758;6.120;2023-07-29T06:26:37;1.60;;;1.50;;
7971;SDS011;4031;49.758;6.120;2023-07-29T06:29:03;2.10;;;1.80;;
7971;SDS011;4031;49.758;6.120;2023-07-29T06:31:29;3.10;;;1.70;;
7971;SDS011;4031;49.758;6.120;2023-07-29T06:33:55;2.57;;;1.70;;
7971;SDS011;4031;49.758;6.120;2023-07-29T06:36:20;1.93;;;1.73;;
7971;SDS011;4031;49.758;6.120;2023-07-29T06:38:46;3.23;;;2.47;;
7971;SDS011;4031;49.758;6.120;2023-07-29T06:41:12;2.43;;;2.23;;
7971;SDS011;4031;49.758;6.120;2023-07-29T06:43:38;4.77;;;2.47;;
7971;SDS011;4031;49.758;6.120;2023-07-29T06:46:04;3.13;;;2.70;;
7971;SDS011;4031;49.758;6.120;2023-07-29T06:48:29;1.90;;;1.70;;
7971;SDS011;4031;49.758;6.120;2023-07-29T06:50:55;1.83;;;1.73;;
7971;SDS011;4031;49.758;6.120;2023-07-29T06:53:25;2.30;;;2.10;;
7971;SDS011;4031;49.758;6.120;2023-07-29T06:55:51;2.50;;;2.30;;
7971;SDS011;4031;49.758;6.120;2023-07-29T06:58:17;2.53;;;2.17;;
7971;SDS011;4031;49.758;6.120;2023-07-29T07:00:43;2.63;;;2.30;;
7971;SDS011;4031;49.758;6.120;2023-07-29T07:03:09;2.03;;;1.80;;
7971;SDS011;4031;49.758;6.120;2023-07-29T07:05:35;2.20;;;1.87;;
7971;SDS011;4031;49.758;6.120;2023-07-29T07:08:00;2.70;;;2.30;;
7971;SDS011;4031;49.758;6.120;2023-07-29T07:10:26;2.13;;;2.00;;
7971;SDS011;4031;49.758;6.120;2023-07-29T07:12:52;1.93;;;1.47;;
7971;SDS011;4031;49.758;6.120;2023-07-29T07:15:18;2.10;;;1.63;;
7971;SDS011;4031;49.758;6.120;2023-07-29T07:17:43;2.70;;;1.70;;
7971;SDS011;4031;49.758;6.120;2023-07-29T07:20:09;1.73;;;1.30;;
7971;SDS011;4031;49.758;6.120;2023-07-29T07:22:36;1.83;;;1.40;;
7971;SDS011;4031;49.758;6.120;2023-07-29T07:25:02;3.40;;;3.20;;
7971;SDS011;4031;49.758;6.120;2023-07-29T07:27:28;1.50;;;1.40;;
7971;SDS011;4031;49.758;6.120;2023-07-29T07:29:54;2.20;;;2.00;;
7971;SDS011;4031;49.758;6.120;2023-07-29T07:32:19;1.40;;;1.30;;
7971;SDS011;4031;49.758;6.120;2023-07-29T07:34:45;1.40;;;1.30;;
7971;SDS011;4031;49.758;6.120;2023-07-29T07:37:11;1.40;;;1.00;;
7971;SDS011;4031;49.758;6.120;2023-07-29T07:39:37;2.10;;;1.33;;
7971;SDS011;4031;49.758;6.120;2023-07-29T07:42:02;1.43;;;1.30;;
7971;SDS011;4031;49.758;6.120;2023-07-29T07:44:28;0.80;;;0.80;;
7971;SDS011;4031;49.758;6.120;2023-07-29T07:46:54;2.30;;;0.80;;
7971;SDS011;4031;49.758;6.120;2023-07-29T07:49:20;1.33;;;1.10;;
7971;SDS011;4031;49.758;6.120;2023-07-29T07:51:46;1.50;;;1.07;;
7971;SDS011;4031;49.758;6.120;2023-07-29T07:54:12;1.53;;;1.27;;
7971;SDS011;4031;49.758;6.120;2023-07-29T07:56:37;1.50;;;1.27;;
7971;SDS011;4031;49.758;6.120;2023-07-29T07:59:03;1.20;;;1.10;;
7971;SDS011;4031;49.758;6.120;2023-07-29T08:01:34;4.10;;;1.40;;
7971;SDS011;4031;49.758;6.120;2023-07-29T08:04:05;1.30;;;1.10;;
7971;SDS011;4031;49.758;6.120;2023-07-29T08:06:31;2.60;;;1.73;;
7971;SDS011;4031;49.758;6.120;2023-07-29T08:08:58;1.57;;;1.47;;
7971;SDS011;4031;49.758;6.120;2023-07-29T08:11:24;1.87;;;1.40;;
7971;SDS011;4031;49.758;6.120;2023-07-29T08:13:50;1.20;;;1.10;;
7971;SDS011;4031;49.758;6.120;2023-07-29T08:16:16;2.33;;;1.30;;
7971;SDS011;4031;49.758;6.120;2023-07-29T08:18:42;1.20;;;1.10;;
7971;SDS011;4031;49.758;6.120;2023-07-29T08:21:08;1.13;;;1.03;;
7971;SDS011;4031;49.758;6.120;2023-07-29T08:23:34;1.40;;;1.23;;
7971;SDS011;4031;49.758;6.120;2023-07-29T08:26:02;1.27;;;1.17;;
7971;SDS011;4031;49.758;6.120;2023-07-29T08:28:30;1.23;;;1.13;;
7971;SDS011;4031;49.758;6.120;2023-07-29T08:31:02;1.50;;;1.20;;
7971;SDS011;4031;49.758;6.120;2023-07-29T08:33:29;1.10;;;1.00;;
7971;SDS011;4031;49.758;6.120;2023-07-29T08:35:55;1.10;;;1.00;;
7971;SDS011;4031;49.758;6.120;2023-07-29T08:38:21;1.33;;;1.10;;
7971;SDS011;4031;49.758;6.120;2023-07-29T08:40:57;1.20;;;1.10;;
7971;SDS011;4031;49.758;6.120;2023-07-29T08:43:31;1.37;;;0.80;;
7971;SDS011;4031;49.758;6.120;2023-07-29T08:45:58;1.20;;;1.10;;
7971;SDS011;4031;49.758;6.120;2023-07-29T08:51:07;1.30;;;1.20;;
7971;SDS011;4031;49.758;6.120;2023-07-29T08:53:35;1.20;;;0.90;;
7971;SDS011;4031;49.758;6.120;2023-07-29T08:56:02;0.80;;;0.80;;
7971;SDS011;4031;49.758;6.120;2023-07-29T08:58:29;1.30;;;1.20;;
7971;SDS011;4031;49.758;6.120;2023-07-29T09:00:56;1.20;;;1.10;;
7971;SDS011;4031;49.758;6.120;2023-07-29T09:03:22;1.67;;;1.13;;
7971;SDS011;4031;49.758;6.120;2023-07-29T09:05:48;1.77;;;0.80;;
7971;SDS011;4031;49.758;6.120;2023-07-29T09:08:14;1.43;;;1.33;;
7971;SDS011;4031;49.758;6.120;2023-07-29T09:10:40;1.60;;;1.00;;
7971;SDS011;4031;49.758;6.120;2023-07-29T09:13:06;1.20;;;1.10;;
7971;SDS011;4031;49.758;6.120;2023-07-29T09:15:33;2.13;;;1.50;;
7971;SDS011;4031;49.758;6.120;2023-07-29T09:18:16;1.63;;;1.20;;
7971;SDS011;4031;49.758;6.120;2023-07-29T09:20:45;1.87;;;1.30;;
7971;SDS011;4031;49.758;6.120;2023-07-29T09:23:13;1.33;;;1.00;;
7971;SDS011;4031;49.758;6.120;2023-07-29T09:25:39;1.47;;;1.37;;
7971;SDS011;4031;49.758;6.120;2023-07-29T09:30:35;1.00;;;1.00;;
7971;SDS011;4031;49.758;6.120;2023-07-29T09:33:03;1.50;;;1.40;;
7971;SDS011;4031;49.758;6.120;2023-07-29T09:35:29;1.23;;;1.13;;
7971;SDS011;4031;49.758;6.120;2023-07-29T09:37:57;2.50;;;1.30;;
7971;SDS011;4031;49.758;6.120;2023-07-29T09:40:23;1.37;;;1.03;;
7971;SDS011;4031;49.758;6.120;2023-07-29T09:42:52;1.00;;;1.00;;
7971;SDS011;4031;49.758;6.120;2023-07-29T09:45:20;1.87;;;1.77;;
7971;SDS011;4031;49.758;6.120;2023-07-29T09:47:51;1.60;;;1.43;;
7971;SDS011;4031;49.758;6.120;2023-07-29T09:50:18;1.30;;;1.20;;
7971;SDS011;4031;49.758;6.120;2023-07-29T09:52:44;1.33;;;1.20;;
7971;SDS011;4031;49.758;6.120;2023-07-29T09:55:13;2.20;;;1.40;;
7971;SDS011;4031;49.758;6.120;2023-07-29T09:57:42;1.27;;;1.17;;
7971;SDS011;4031;49.758;6.120;2023-07-29T10:00:10;1.10;;;1.00;;
7971;SDS011;4031;49.758;6.120;2023-07-29T10:02:40;0.77;;;0.77;;
7971;SDS011;4031;49.758;6.120;2023-07-29T10:05:07;1.10;;;0.93;;
7971;SDS011;4031;49.758;6.120;2023-07-29T10:07:36;1.43;;;1.33;;
7971;SDS011;4031;49.758;6.120;2023-07-29T10:10:06;1.27;;;1.17;;
7971;SDS011;4031;49.758;6.120;2023-07-29T10:12:34;0.90;;;0.90;;
7971;SDS011;4031;49.758;6.120;2023-07-29T10:15:04;1.63;;;0.93;;
7971;SDS011;4031;49.758;6.120;2023-07-29T10:17:35;1.90;;;1.60;;
7971;SDS011;4031;49.758;6.120;2023-07-29T10:20:05;1.10;;;0.90;;
7971;SDS011;4031;49.758;6.120;2023-07-29T10:22:39;1.30;;;1.20;;
7971;SDS011;4031;49.758;6.120;2023-07-29T10:25:07;2.20;;;1.13;;
7971;SDS011;4031;49.758;6.120;2023-07-29T10:28:02;5.60;;;1.27;;
7971;SDS011;4031;49.758;6.120;2023-07-29T10:30:31;1.40;;;1.30;;
7971;SDS011;4031;49.758;6.120;2023-07-29T10:32:58;1.10;;;1.00;;
7971;SDS011;4031;49.758;6.120;2023-07-29T10:35:27;1.20;;;1.10;;
7971;SDS011;4031;49.758;6.120;2023-07-29T10:37:53;1.10;;;1.00;;
7971;SDS011;4031;49.758;6.120;2023-07-29T10:40:20;1.40;;;1.27;;
7971;SDS011;4031;49.758;6.120;2023-07-29T10:45:59;1.00;;;1.00;;
7971;SDS011;4031;49.758;6.120;2023-07-29T10:48:51;1.30;;;1.20;;
7971;SDS011;4031;49.758;6.120;2023-07-29T10:54:08;1.53;;;0.93;;
7971;SDS011;4031;49.758;6.120;2023-07-29T10:56:42;1.43;;;1.33;;
7971;SDS011;4031;49.758;6.120;2023-07-29T11:01:42;1.27;;;1.27;;
7971;SDS011;4031;49.758;6.120;2023-07-29T11:20:28;1.53;;;1.13;;
7971;SDS011;4031;49.758;6.120;2023-07-29T11:22:57;1.10;;;0.80;;
7971;SDS011;4031;49.758;6.120;2023-07-29T11:25:26;0.97;;;0.87;;
7971;SDS011;4031;49.758;6.120;2023-07-29T11:27:54;1.20;;;1.10;;
7971;SDS011;4031;49.758;6.120;2023-07-29T11:30:23;0.93;;;0.83;;
7971;SDS011;4031;49.758;6.120;2023-07-29T11:32:51;1.00;;;0.87;;
7971;SDS011;4031;49.758;6.120;2023-07-29T11:35:19;0.87;;;0.87;;
7971;SDS011;4031;49.758;6.120;2023-07-29T11:37:45;1.43;;;1.00;;
7971;SDS011;4031;49.758;6.120;2023-07-29T11:40:16;1.13;;;1.03;;
7971;SDS011;4031;49.758;6.120;2023-07-29T11:42:44;1.83;;;1.10;;
7971;SDS011;4031;49.758;6.120;2023-07-29T11:45:12;0.80;;;0.80;;
7971;SDS011;4031;49.758;6.120;2023-07-29T11:47:38;0.83;;;0.80;;
7971;SDS011;4031;49.758;6.120;2023-07-29T11:50:05;0.90;;;0.87;;
7971;SDS011;4031;49.758;6.120;2023-07-29T11:52:36;1.43;;;0.87;;
7971;SDS011;4031;49.758;6.120;2023-07-29T11:55:05;1.03;;;1.03;;
7971;SDS011;4031;49.758;6.120;2023-07-29T11:57:35;1.10;;;1.00;;
7971;SDS011;4031;49.758;6.120;2023-07-29T12:00:04;0.70;;;0.70;;
7971;SDS011;4031;49.758;6.120;2023-07-29T12:02:35;1.30;;;0.90;;
7971;SDS011;4031;49.758;6.120;2023-07-29T12:05:04;1.53;;;0.80;;
7971;SDS011;4031;49.758;6.120;2023-07-29T12:07:31;1.53;;;1.00;;
7971;SDS011;4031;49.758;6.120;2023-07-29T12:09:58;0.97;;;0.97;;
7971;SDS011;4031;49.758;6.120;2023-07-29T12:12:24;0.93;;;0.90;;
7971;SDS011;4031;49.758;6.120;2023-07-29T12:14:53;1.17;;;1.00;;
7971;SDS011;4031;49.758;6.120;2023-07-29T12:17:19;1.20;;;1.10;;
7971;SDS011;4031;49.758;6.120;2023-07-29T12:19:45;1.30;;;0.93;;
7971;SDS011;4031;49.758;6.120;2023-07-29T12:22:11;0.83;;;0.77;;
7971;SDS011;4031;49.758;6.120;2023-07-29T12:24:38;1.13;;;1.03;;
7971;SDS011;4031;49.758;6.120;2023-07-29T12:27:06;1.47;;;1.10;;
7971;SDS011;4031;49.758;6.120;2023-07-29T12:29:40;1.87;;;1.00;;
7971;SDS011;4031;49.758;6.120;2023-07-29T12:32:08;1.00;;;0.90;;
7971;SDS011;4031;49.758;6.120;2023-07-29T12:34:34;1.30;;;1.20;;
7971;SDS011;4031;49.758;6.120;2023-07-29T12:37:02;1.20;;;1.10;;
7971;SDS011;4031;49.758;6.120;2023-07-29T12:39:30;2.53;;;0.93;;
7971;SDS011;4031;49.758;6.120;2023-07-29T12:41:59;1.20;;;1.10;;
7971;SDS011;4031;49.758;6.120;2023-07-29T12:44:29;1.37;;;1.13;;
7971;SDS011;4031;49.758;6.120;2023-07-29T12:46:57;1.53;;;1.43;;
7971;SDS011;4031;49.758;6.120;2023-07-29T12:49:22;1.30;;;1.20;;
7971;SDS011;4031;49.758;6.120;2023-07-29T12:51:48;1.27;;;1.17;;
7971;SDS011;4031;49.758;6.120;2023-07-29T12:54:14;1.40;;;1.23;;
7971;SDS011;4031;49.758;6.120;2023-07-29T12:56:39;1.13;;;1.03;;
7971;SDS011;4031;49.758;6.120;2023-07-29T12:59:05;1.80;;;1.60;;
7971;SDS011;4031;49.758;6.120;2023-07-29T13:01:31;2.23;;;1.60;;
7971;SDS011;4031;49.758;6.120;2023-07-29T13:03:57;4.60;;;1.17;;
7971;SDS011;4031;49.758;6.120;2023-07-29T13:06:23;0.80;;;0.70;;
7971;SDS011;4031;49.758;6.120;2023-07-29T13:08:48;1.63;;;1.23;;
7971;SDS011;4031;49.758;6.120;2023-07-29T13:11:15;2.30;;;1.03;;
7971;SDS011;4031;49.758;6.120;2023-07-29T13:13:41;1.23;;;0.97;;
7971;SDS011;4031;49.758;6.120;2023-07-29T13:16:07;1.00;;;1.00;;
7971;SDS011;4031;49.758;6.120;2023-07-29T13:18:33;1.47;;;1.27;;
7971;SDS011;4031;49.758;6.120;2023-07-29T13:20:59;1.30;;;0.90;;
7971;SDS011;4031;49.758;6.120;2023-07-29T13:23:25;1.30;;;1.00;;
7971;SDS011;4031;49.758;6.120;2023-07-29T13:25:51;1.47;;;0.80;;
7971;SDS011;4031;49.758;6.120;2023-07-29T13:28:17;1.17;;;1.07;;
7971;SDS011;4031;49.758;6.120;2023-07-29T13:30:44;0.80;;;0.80;;
7971;SDS011;4031;49.758;6.120;2023-07-29T13:33:09;1.63;;;1.10;;
7971;SDS011;4031;49.758;6.120;2023-07-29T13:35:35;1.03;;;0.93;;
7971;SDS011;4031;49.758;6.120;2023-07-29T13:38:01;1.43;;;1.20;;
7971;SDS011;4031;49.758;6.120;2023-07-29T13:40:27;1.90;;;1.30;;
7971;SDS011;4031;49.758;6.120;2023-07-29T13:42:54;1.10;;;1.00;;
7971;SDS011;4031;49.758;6.120;2023-07-29T13:45:20;1.57;;;0.80;;
7971;SDS011;4031;49.758;6.120;2023-07-29T13:47:46;1.00;;;0.90;;
7971;SDS011;4031;49.758;6.120;2023-07-29T13:50:13;0.90;;;0.80;;
7971;SDS011;4031;49.758;6.120;2023-07-29T13:52:39;1.63;;;0.70;;
7971;SDS011;4031;49.758;6.120;2023-07-29T13:55:05;1.13;;;1.03;;
7971;SDS011;4031;49.758;6.120;2023-07-29T13:57:31;2.83;;;1.03;;
7971;SDS011;4031;49.758;6.120;2023-07-29T13:59:57;0.87;;;0.70;;
7971;SDS011;4031;49.758;6.120;2023-07-29T14:02:23;1.43;;;0.93;;
7971;SDS011;4031;49.758;6.120;2023-07-29T14:04:51;1.07;;;1.07;;
7971;SDS011;4031;49.758;6.120;2023-07-29T14:07:18;0.80;;;0.73;;
7971;SDS011;4031;49.758;6.120;2023-07-29T14:09:43;0.90;;;0.90;;
7971;SDS011;4031;49.758;6.120;2023-07-29T14:12:09;0.97;;;0.80;;
7971;SDS011;4031;49.758;6.120;2023-07-29T14:14:40;1.33;;;1.07;;
7971;SDS011;4031;49.758;6.120;2023-07-29T14:17:07;1.17;;;1.07;;
7971;SDS011;4031;49.758;6.120;2023-07-29T14:19:36;1.27;;;0.97;;
7971;SDS011;4031;49.758;6.120;2023-07-29T14:22:02;1.30;;;1.20;;
7971;SDS011;4031;49.758;6.120;2023-07-29T14:24:28;1.37;;;1.10;;
7971;SDS011;4031;49.758;6.120;2023-07-29T14:26:53;1.33;;;1.30;;
7971;SDS011;4031;49.758;6.120;2023-07-29T14:29:19;0.80;;;0.80;;
7971;SDS011;4031;49.758;6.120;2023-07-29T14:31:45;1.97;;;0.90;;
7971;SDS011;4031;49.758;6.120;2023-07-29T14:34:10;1.10;;;1.07;;
7971;SDS011;4031;49.758;6.120;2023-07-29T14:36:36;1.37;;;0.90;;
7971;SDS011;4031;49.758;6.120;2023-07-29T14:39:02;1.10;;;1.00;;
7971;SDS011;4031;49.758;6.120;2023-07-29T14:41:28;0.87;;;0.87;;
7971;SDS011;4031;49.758;6.120;2023-07-29T14:43:55;0.80;;;0.80;;
7971;SDS011;4031;49.758;6.120;2023-07-29T14:46:21;1.27;;;1.07;;
7971;SDS011;4031;49.758;6.120;2023-07-29T14:48:46;1.40;;;0.90;;
7971;SDS011;4031;49.758;6.120;2023-07-29T14:51:12;1.10;;;1.00;;
7971;SDS011;4031;49.758;6.120;2023-07-29T14:53:38;1.07;;;0.97;;
7971;SDS011;4031;49.758;6.120;2023-07-29T14:56:04;1.00;;;0.90;;
7971;SDS011;4031;49.758;6.120;2023-07-29T14:58:30;0.90;;;0.90;;
7971;SDS011;4031;49.758;6.120;2023-07-29T15:00:56;1.17;;;0.87;;
7971;SDS011;4031;49.758;6.120;2023-07-29T15:03:23;0.80;;;0.80;;
7971;SDS011;4031;49.758;6.120;2023-07-29T15:05:49;1.07;;;1.07;;
7971;SDS011;4031;49.758;6.120;2023-07-29T15:08:15;1.00;;;0.90;;
7971;SDS011;4031;49.758;6.120;2023-07-29T15:10:46;1.37;;;0.80;;
7971;SDS011;4031;49.758;6.120;2023-07-29T15:13:13;1.10;;;1.00;;
7971;SDS011;4031;49.758;6.120;2023-07-29T15:15:42;1.33;;;1.00;;
7971;SDS011;4031;49.758;6.120;2023-07-29T15:18:09;0.90;;;0.87;;
7971;SDS011;4031;49.758;6.120;2023-07-29T15:20:35;1.33;;;0.70;;
7971;SDS011;4031;49.758;6.120;2023-07-29T15:23:01;1.07;;;0.97;;
7971;SDS011;4031;49.758;6.120;2023-07-29T15:25:27;1.10;;;1.00;;
7971;SDS011;4031;49.758;6.120;2023-07-29T15:27:52;1.20;;;1.10;;
7971;SDS011;4031;49.758;6.120;2023-07-29T15:30:18;1.57;;;1.07;;
7971;SDS011;4031;49.758;6.120;2023-07-29T15:32:44;1.00;;;1.00;;
7971;SDS011;4031;49.758;6.120;2023-07-29T15:35:10;1.13;;;1.03;;
7971;SDS011;4031;49.758;6.120;2023-07-29T15:37:36;1.50;;;1.40;;
7971;SDS011;4031;49.758;6.120;2023-07-29T15:40:02;0.90;;;0.90;;
7971;SDS011;4031;49.758;6.120;2023-07-29T15:42:29;1.10;;;1.00;;
7971;SDS011;4031;49.758;6.120;2023-07-29T15:44:54;1.20;;;1.10;;
7971;SDS011;4031;49.758;6.120;2023-07-29T15:47:20;1.17;;;1.03;;
7971;SDS011;4031;49.758;6.120;2023-07-29T15:49:46;1.57;;;1.47;;
7971;SDS011;4031;49.758;6.120;2023-07-29T15:52:12;1.20;;;1.10;;